createdAt,value
2023-01-29T00:01:29.189Z,32.22
2023-01-29T00:04:11.797Z,33.08
2023-01-29T00:06:49.012Z,35.13
2023-01-29T00:09:30.830Z,33.65
2023-01-29T00:12:01.410Z,32.28
2023-01-29T00:15:00.511Z,28.92
2023-01-29T00:17:32.456Z,31.08
2023-01-29T00:19:59.414Z,32.60
2023-01-29T00:22:47.731Z,31.05
2023-01-29T00:25:15.476Z,32.75
2023-01-29T00:27:51.712Z,33.67
2023-01-29T00:30:32.369Z,32.03
2023-01-29T00:33:30.416Z,31.98
2023-01-29T00:36:13.081Z,31.33
2023-01-29T00:38:50.027Z,34.65
2023-01-29T00:41:17.876Z,28.55
2023-01-29T00:44:16.483Z,33.22
2023-01-29T00:46:45.196Z,32.03
2023-01-29T00:49:19.800Z,31.88
2023-01-29T00:51:56.140Z,32.92
2023-01-29T00:54:34.965Z,31.02
2023-01-29T00:57:09.351Z,33.47
2023-01-29T00:59:51.398Z,31.70
2023-01-29T01:02:43.061Z,31.90
2023-01-29T01:05:21.042Z,33.63
2023-01-29T01:08:15.556Z,34.78
2023-01-29T01:10:58.092Z,34.60
2023-01-29T01:13:39.851Z,34.55
2023-01-29T01:16:18.565Z,30.77
2023-01-29T01:18:55.513Z,32.70
2023-01-29T01:21:42.655Z,31.40
2023-01-29T01:24:20.717Z,30.98
2023-01-29T01:27:01.940Z,29.40
2023-01-29T01:29:47.139Z,32.88
2023-01-29T01:32:24.942Z,37.05
2023-01-29T01:34:53.657Z,34.17
2023-01-29T01:37:27.841Z,32.33
2023-01-29T01:39:58.279Z,32.97
2023-01-29T01:42:39.878Z,32.03
2023-01-29T01:45:19.661Z,31.33
2023-01-29T01:48:03.007Z,30.77
2023-01-29T01:50:45.609Z,34.35
2023-01-29T01:53:24.110Z,32.50
2023-01-29T01:56:19.907Z,33.72
2023-01-29T01:59:07.707Z,32.90
2023-01-29T02:01:48.360Z,33.78
2023-01-29T02:04:22.894Z,31.42
2023-01-29T02:06:53.719Z,31.17
2023-01-29T02:09:34.117Z,32.45
2023-01-29T02:12:15.582Z,32.95
2023-01-29T02:14:42.718Z,34.08
2023-01-29T02:17:17.518Z,28.33
2023-01-29T02:20:02.675Z,29.58
2023-01-29T02:23:06.466Z,30.42
2023-01-29T02:25:52.792Z,36.15
2023-01-29T02:28:41.820Z,30.17
2023-01-29T02:31:35.863Z,32.00
2023-01-29T02:34:21.246Z,34.58
2023-01-29T02:37:03.426Z,33.50
2023-01-29T02:39:53.065Z,32.13
2023-01-29T02:42:36.337Z,32.20
2023-01-29T02:45:29.429Z,34.85
2023-01-29T02:48:03.020Z,33.63
2023-01-29T02:51:12.462Z,30.58
2023-01-29T02:53:59.266Z,34.33
2023-01-29T02:57:07.547Z,33.38
2023-01-29T02:59:50.515Z,29.27
2023-01-29T03:02:40.396Z,32.40
2023-01-29T03:05:15.085Z,30.67
2023-01-29T03:07:49.198Z,35.88
2023-01-29T03:10:29.676Z,33.45
2023-01-29T03:13:34.635Z,33.20
2023-01-29T03:16:14.267Z,35.70
2023-01-29T03:18:46.887Z,35.85
2023-01-29T03:21:19.912Z,36.67
2023-01-29T03:23:46.452Z,35.95
2023-01-29T03:26:16.999Z,33.17
2023-01-29T03:28:46.413Z,33.78
2023-01-29T03:31:14.859Z,37.60
2023-01-29T03:33:54.934Z,34.40
2023-01-29T03:36:30.141Z,33.88
2023-01-29T03:39:19.240Z,31.80
2023-01-29T03:42:02.787Z,33.65
2023-01-29T03:44:35.031Z,30.95
2023-01-29T03:47:17.354Z,34.15
2023-01-29T03:50:21.003Z,32.60
2023-01-29T03:53:20.790Z,33.72
2023-01-29T03:56:03.847Z,35.17
2023-01-29T03:58:43.052Z,33.25
2023-01-29T04:01:20.910Z,34.50
2023-01-29T04:04:22.692Z,33.05
2023-01-29T04:06:52.701Z,39.17
2023-01-29T04:09:32.297Z,31.42
2023-01-29T04:12:10.532Z,39.13
2023-01-29T04:14:38.930Z,33.47
2023-01-29T04:17:25.311Z,35.00
2023-01-29T04:19:57.730Z,34.67
2023-01-29T04:22:33.096Z,33.38
2023-01-29T04:25:15.403Z,33.15
2023-01-29T04:31:05.701Z,32.15
2023-01-29T04:33:44.155Z,31.42
2023-01-29T04:36:25.762Z,36.75
2023-01-29T04:39:18.185Z,33.97
2023-01-29T04:44:48.807Z,31.33
2023-01-29T04:47:56.739Z,36.53
2023-01-29T04:50:38.645Z,34.53
2023-01-29T04:53:31.881Z,31.73
2023-01-29T04:56:15.660Z,37.40
2023-01-29T04:58:57.587Z,33.85
2023-01-29T05:01:30.022Z,32.30
2023-01-29T05:03:59.440Z,38.97
2023-01-29T05:06:29.499Z,33.45
2023-01-29T05:09:03.358Z,35.60
2023-01-29T05:11:39.898Z,37.25
2023-01-29T05:14:11.541Z,33.13
2023-01-29T05:16:43.086Z,33.67
2023-01-29T05:19:14.835Z,35.75
2023-01-29T05:21:56.217Z,37.30
2023-01-29T05:24:39.341Z,36.50
2023-01-29T05:27:14.455Z,38.25
2023-01-29T05:29:45.563Z,34.85
2023-01-29T05:32:12.676Z,36.40
2023-01-29T05:34:39.313Z,34.92
2023-01-29T05:37:20.269Z,37.85
2023-01-29T05:39:57.873Z,34.80
2023-01-29T05:42:24.471Z,38.90
2023-01-29T05:44:52.419Z,35.40
2023-01-29T05:47:22.788Z,34.38
2023-01-29T05:49:49.364Z,38.55
2023-01-29T05:52:16.564Z,38.67
2023-01-29T05:54:53.769Z,35.08
2023-01-29T05:57:24.708Z,36.72
2023-01-29T06:00:00.808Z,30.67
2023-01-29T06:02:30.177Z,33.90
2023-01-29T06:04:59.718Z,32.88
2023-01-29T06:07:31.374Z,37.28
2023-01-29T06:10:00.226Z,38.95
2023-01-29T06:12:27.393Z,33.92
2023-01-29T06:14:54.158Z,34.90
2023-01-29T06:17:23.471Z,31.75
2023-01-29T06:19:57.687Z,34.60
2023-01-29T06:22:24.256Z,40.03
2023-01-29T06:24:50.780Z,33.50
2023-01-29T06:27:19.655Z,34.67
2023-01-29T06:29:46.229Z,38.20
2023-01-29T06:32:12.880Z,36.45
2023-01-29T06:34:39.469Z,34.47
2023-01-29T06:37:06.583Z,33.25
2023-01-29T06:39:33.325Z,34.10
2023-01-29T06:42:02.885Z,34.80
2023-01-29T06:44:29.492Z,35.60
2023-01-29T06:46:56.024Z,36.08
2023-01-29T06:49:22.853Z,36.50
2023-01-29T06:51:49.748Z,38.05
2023-01-29T06:54:27.923Z,37.20
2023-01-29T06:57:00.594Z,39.22
2023-01-29T06:59:30.579Z,37.33
2023-01-29T07:02:00.307Z,35.55
2023-01-29T07:04:26.949Z,36.33
2023-01-29T07:06:53.529Z,36.08
2023-01-29T07:09:20.152Z,35.22
2023-01-29T07:11:46.703Z,44.13
2023-01-29T07:14:18.633Z,35.05
2023-01-29T07:16:54.446Z,39.67
2023-01-29T07:19:24.403Z,35.17
2023-01-29T07:21:59.827Z,39.53
2023-01-29T07:24:26.435Z,35.75
2023-01-29T07:26:53.071Z,36.05
2023-01-29T07:29:20.824Z,35.15
2023-01-29T07:31:48.067Z,35.90
2023-01-29T07:34:20.666Z,38.17
2023-01-29T07:36:56.412Z,34.03
2023-01-29T07:39:23.487Z,36.13
2023-01-29T07:41:52.919Z,36.95
2023-01-29T07:44:26.520Z,33.92
2023-01-29T07:46:58.929Z,32.97
2023-01-29T07:49:28.139Z,36.42
2023-01-29T07:51:54.727Z,37.45
2023-01-29T07:54:21.301Z,32.55
2023-01-29T07:56:49.370Z,33.80
2023-01-29T07:59:18.646Z,37.47
2023-01-29T08:01:47.965Z,36.95
2023-01-29T08:04:18.265Z,32.22
2023-01-29T08:06:44.901Z,36.20
2023-01-29T08:09:11.487Z,38.90
2023-01-29T08:11:41.061Z,36.05
2023-01-29T08:14:07.815Z,37.63
2023-01-29T08:16:34.436Z,35.22
2023-01-29T08:19:05.439Z,35.55
2023-01-29T08:21:38.254Z,36.88
2023-01-29T08:24:05.371Z,32.92
2023-01-29T08:26:31.940Z,35.78
2023-01-29T08:28:58.832Z,36.22
2023-01-29T08:31:25.633Z,37.00
2023-01-29T08:33:58.235Z,38.30
2023-01-29T08:36:34.101Z,38.58
2023-01-29T08:39:05.041Z,37.55
2023-01-29T08:41:41.821Z,38.50
2023-01-29T08:44:09.749Z,35.03
2023-01-29T08:46:50.218Z,34.05
2023-01-29T08:49:23.751Z,35.53
2023-01-29T08:52:03.110Z,34.13
2023-01-29T08:54:49.477Z,31.15
2023-01-29T08:57:22.464Z,34.38
2023-01-29T08:59:54.284Z,33.55
2023-01-29T09:02:25.525Z,35.53
2023-01-29T09:04:53.401Z,36.17
2023-01-29T09:07:21.613Z,33.00
2023-01-29T09:09:58.509Z,39.75
2023-01-29T09:12:34.020Z,34.28
2023-01-29T09:15:03.457Z,35.85
2023-01-29T09:17:30.076Z,36.03
2023-01-29T09:20:01.896Z,38.33
2023-01-29T09:22:28.696Z,32.75
2023-01-29T09:24:58.210Z,33.58
2023-01-29T09:27:25.026Z,34.15
2023-01-29T09:29:55.180Z,36.03
2023-01-29T09:32:49.715Z,40.80
2023-01-29T09:35:08.720Z,32.42
2023-01-29T09:37:35.808Z,36.25
2023-01-29T09:40:15.987Z,36.38
2023-01-29T09:42:50.673Z,36.58
2023-01-29T09:45:27.369Z,32.63
2023-01-29T09:48:02.956Z,39.63
2023-01-29T09:51:04.098Z,37.05
2023-01-29T09:53:52.110Z,39.47
2023-01-29T09:56:28.740Z,42.78
2023-01-29T09:59:00.526Z,51.65
2023-01-29T10:01:40.159Z,37.72
2023-01-29T10:04:40.574Z,35.88
2023-01-29T10:07:33.287Z,35.85
2023-01-29T10:10:03.867Z,37.03
2023-01-29T10:12:53.673Z,36.03
2023-01-29T10:15:40.680Z,42.15
2023-01-29T10:18:18.046Z,36.95
2023-01-29T10:21:11.899Z,37.45
2023-01-29T10:23:55.835Z,38.67
2023-01-29T10:26:26.447Z,34.28
2023-01-29T10:28:55.631Z,41.08
2023-01-29T10:31:31.048Z,38.70
2023-01-29T10:34:08.665Z,34.45
2023-01-29T10:36:55.104Z,36.63
2023-01-29T10:39:32.678Z,34.70
2023-01-29T10:42:44.980Z,34.85
2023-01-29T10:45:29.938Z,37.08
2023-01-29T10:48:29.974Z,39.25
2023-01-29T10:51:17.734Z,38.42
2023-01-29T10:54:09.406Z,37.10
2023-01-29T10:57:01.637Z,33.05
2023-01-29T10:59:47.226Z,37.75
2023-01-29T11:02:30.347Z,38.65
2023-01-29T11:05:05.760Z,40.80
2023-01-29T11:07:35.131Z,37.97
2023-01-29T11:10:27.362Z,37.55
2023-01-29T11:13:06.721Z,34.45
2023-01-29T11:15:38.837Z,37.05
2023-01-29T11:18:11.523Z,35.38
2023-01-29T11:20:38.272Z,31.70
2023-01-29T11:23:24.951Z,31.88
2023-01-29T11:26:05.868Z,33.05
2023-01-29T11:28:47.179Z,32.13
2023-01-29T11:31:38.631Z,34.47
2023-01-29T11:34:19.223Z,40.95
2023-01-29T11:36:45.949Z,36.30
2023-01-29T11:42:22.440Z,34.80
2023-01-29T11:44:52.529Z,33.85
2023-01-29T11:47:27.622Z,31.13
2023-01-29T11:50:24.818Z,38.55
2023-01-29T11:52:51.930Z,32.65
2023-01-29T11:55:44.339Z,41.40
2023-01-29T11:58:33.542Z,33.38
2023-01-29T12:01:00.582Z,32.78
2023-01-29T12:03:50.066Z,33.70
2023-01-29T12:06:39.352Z,32.20
2023-01-29T12:09:46.261Z,32.35
2023-01-29T12:12:47.409Z,31.58
2023-01-29T12:15:21.329Z,30.80
2023-01-29T12:18:05.226Z,30.33
2023-01-29T12:20:52.333Z,32.85
2023-01-29T12:24:00.033Z,34.30
2023-01-29T12:26:50.528Z,29.95
2023-01-29T12:29:51.448Z,27.73
2023-01-29T12:32:35.996Z,29.48
2023-01-29T12:35:20.876Z,30.02
2023-01-29T12:38:26.771Z,29.00
2023-01-29T12:40:58.821Z,24.08
2023-01-29T12:46:15.648Z,23.45
2023-01-29T12:48:50.087Z,25.83
2023-01-29T12:51:29.677Z,29.27
2023-01-29T12:54:23.071Z,23.27
2023-01-29T12:57:18.135Z,23.95
2023-01-29T12:59:51.085Z,22.20
2023-01-29T13:02:40.980Z,27.00
2023-01-29T13:05:23.486Z,22.70
2023-01-29T13:07:57.952Z,23.00
2023-01-29T13:10:52.080Z,23.08
2023-01-29T13:13:42.739Z,18.88
2023-01-29T13:16:18.827Z,21.13
2023-01-29T13:19:07.526Z,22.58
2023-01-29T13:21:41.935Z,25.65
2023-01-29T13:24:19.439Z,22.55
2023-01-29T13:26:49.814Z,21.73
2023-01-29T13:29:31.148Z,24.70
2023-01-29T13:32:10.703Z,21.40
2023-01-29T13:34:47.426Z,21.52
2023-01-29T13:40:07.322Z,19.15
2023-01-29T13:42:49.808Z,18.50
2023-01-29T13:45:34.143Z,20.85
2023-01-29T13:48:26.006Z,19.88
2023-01-29T13:51:01.558Z,19.05
2023-01-29T13:53:40.148Z,21.67
2023-01-29T13:56:34.863Z,19.58
2023-01-29T13:59:03.325Z,18.77
2023-01-29T14:01:47.920Z,17.67
2023-01-29T14:04:23.144Z,20.80
2023-01-29T14:06:51.941Z,20.73
2023-01-29T14:09:49.834Z,19.23
2023-01-29T14:12:26.466Z,19.65
2023-01-29T14:14:55.794Z,19.52
2023-01-29T14:20:20.919Z,17.90
2023-01-29T14:22:56.515Z,18.08
2023-01-29T14:25:32.123Z,16.55
2023-01-29T14:28:01.857Z,18.27
2023-01-29T14:30:32.947Z,20.10
2023-01-29T14:32:59.912Z,19.85
2023-01-29T14:35:30.755Z,19.05
2023-01-29T14:38:08.635Z,20.87
2023-01-29T14:40:36.031Z,19.20
2023-01-29T14:43:20.092Z,18.92
2023-01-29T14:45:50.081Z,17.85
2023-01-29T14:48:35.306Z,20.58
2023-01-29T14:51:14.260Z,18.75
2023-01-29T14:53:49.298Z,19.08
2023-01-29T14:56:22.726Z,17.55
2023-01-29T14:59:13.675Z,19.77
2023-01-29T15:02:05.690Z,20.75
2023-01-29T15:04:52.445Z,16.05
2023-01-29T15:08:08.461Z,18.13
2023-01-29T15:10:45.579Z,20.35
2023-01-29T15:13:31.549Z,18.70
2023-01-29T15:16:19.512Z,19.13
2023-01-29T15:19:05.706Z,18.75
2023-01-29T15:21:43.467Z,20.83
2023-01-29T15:24:17.121Z,18.92
2023-01-29T15:26:43.793Z,19.55
2023-01-29T15:29:24.768Z,18.70
2023-01-29T15:31:51.977Z,18.98
2023-01-29T15:34:21.246Z,20.33
2023-01-29T15:36:49.217Z,20.48
2023-01-29T15:39:17.525Z,20.63
2023-01-29T15:41:45.178Z,19.13
2023-01-29T15:44:20.179Z,20.77
2023-01-29T15:47:00.295Z,19.92
2023-01-29T15:49:41.941Z,17.80
2023-01-29T15:52:22.822Z,21.92
2023-01-29T15:55:03.669Z,18.23
2023-01-29T15:57:36.801Z,20.55
2023-01-29T16:00:09.143Z,19.88
2023-01-29T16:02:37.367Z,17.77
2023-01-29T16:05:06.799Z,20.67
2023-01-29T16:07:37.182Z,18.77
2023-01-29T16:10:24.333Z,20.23
2023-01-29T16:12:58.192Z,22.33
2023-01-29T16:15:42.794Z,24.58
2023-01-29T16:18:41.083Z,19.83
2023-01-29T16:21:23.463Z,23.45
2023-01-29T16:24:03.183Z,22.08
2023-01-29T16:26:36.607Z,24.27
2023-01-29T16:29:12.050Z,21.80
2023-01-29T16:31:40.440Z,21.90
2023-01-29T16:34:14.604Z,19.15
2023-01-29T16:36:59.451Z,22.95
2023-01-29T16:39:43.912Z,21.05
2023-01-29T16:42:10.403Z,23.45
2023-01-29T16:44:42.920Z,26.33
2023-01-29T16:47:40.727Z,21.20
2023-01-29T16:50:34.457Z,26.35
2023-01-29T16:53:12.226Z,27.63
2023-01-29T16:56:06.724Z,30.52
2023-01-29T16:58:34.305Z,24.48
2023-01-29T17:01:12.923Z,26.48
2023-01-29T17:03:56.602Z,22.65
2023-01-29T17:06:30.739Z,30.30
2023-01-29T17:08:57.292Z,26.70
2023-01-29T17:11:38.847Z,28.65
2023-01-29T17:14:07.608Z,26.25
2023-01-29T17:16:37.286Z,32.13
2023-01-29T17:19:19.341Z,25.02
2023-01-29T17:21:52.986Z,30.33
2023-01-29T17:24:21.945Z,30.02
2023-01-29T17:26:52.555Z,26.80
2023-01-29T17:29:35.765Z,26.00
2023-01-29T17:32:06.266Z,27.52
2023-01-29T17:34:33.323Z,29.63
2023-01-29T17:37:02.252Z,28.95
2023-01-29T17:39:30.196Z,26.48
2023-01-29T17:41:59.580Z,28.48
2023-01-29T17:44:28.908Z,32.97
2023-01-29T17:46:55.473Z,35.60
2023-01-29T17:49:28.828Z,30.70
2023-01-29T17:51:56.746Z,29.45
2023-01-29T17:54:23.821Z,33.45
2023-01-29T17:56:50.761Z,36.28
2023-01-29T17:59:19.810Z,29.30
2023-01-29T18:01:50.477Z,32.60
2023-01-29T18:04:18.038Z,25.75
2023-01-29T18:06:47.533Z,28.90
2023-01-29T18:09:19.276Z,28.13
2023-01-29T18:11:48.170Z,27.52
2023-01-29T18:14:15.684Z,30.80
2023-01-29T18:16:53.657Z,28.45
2023-01-29T18:19:30.661Z,26.92
2023-01-29T18:21:58.589Z,30.77
2023-01-29T18:24:25.138Z,29.67
2023-01-29T18:26:59.665Z,32.75
2023-01-29T18:29:32.786Z,30.83
2023-01-29T18:32:00.304Z,27.80
2023-01-29T18:34:32.641Z,40.65
2023-01-29T18:36:59.283Z,34.03
2023-01-29T18:39:25.952Z,32.92
2023-01-29T18:41:57.117Z,29.83
2023-01-29T18:47:23.907Z,35.17
2023-01-29T18:49:54.317Z,29.27
2023-01-29T18:52:36.677Z,35.72
2023-01-29T18:55:09.858Z,30.73
2023-01-29T18:58:28.398Z,33.95
2023-01-29T19:00:25.093Z,29.75
2023-01-29T19:02:51.733Z,32.42
2023-01-29T19:05:19.038Z,34.65
2023-01-29T19:07:53.113Z,30.30
2023-01-29T19:10:19.772Z,31.20
2023-01-29T19:12:56.052Z,32.53
2023-01-29T19:15:26.225Z,30.08
2023-01-29T19:17:58.922Z,31.15
2023-01-29T19:20:27.259Z,28.95
2023-01-29T19:23:04.580Z,29.90
2023-01-29T19:25:31.743Z,35.20
2023-01-29T19:28:00.435Z,31.63
2023-01-29T19:30:43.216Z,31.30
2023-01-29T19:33:13.559Z,32.30
2023-01-29T19:35:49.104Z,29.00
2023-01-29T19:38:16.668Z,34.10
2023-01-29T19:41:01.479Z,31.92
2023-01-29T19:43:32.350Z,29.50
2023-01-29T19:46:02.128Z,32.45
2023-01-29T19:48:28.913Z,32.45
2023-01-29T19:51:00.660Z,31.90
2023-01-29T19:53:31.225Z,33.85
2023-01-29T19:56:00.553Z,34.50
2023-01-29T19:58:31.441Z,33.65
2023-01-29T20:01:15.101Z,29.58
2023-01-29T20:03:47.421Z,35.67
2023-01-29T20:06:22.096Z,40.38
2023-01-29T20:08:48.892Z,31.85
2023-01-29T20:11:23.806Z,36.58
2023-01-29T20:13:56.995Z,36.85
2023-01-29T20:16:25.082Z,29.98
2023-01-29T20:18:54.704Z,35.53
2023-01-29T20:21:49.616Z,35.70
2023-01-29T20:24:16.298Z,42.30
2023-01-29T20:26:42.965Z,41.88
2023-01-29T20:29:15.292Z,31.42
2023-01-29T20:31:41.902Z,36.70
2023-01-29T20:34:17.189Z,44.28
2023-01-29T20:36:48.156Z,40.28
2023-01-29T20:39:17.879Z,43.90
2023-01-29T20:41:49.571Z,35.92
2023-01-29T20:44:16.115Z,39.85
2023-01-29T20:46:42.716Z,35.35
2023-01-29T20:49:16.509Z,38.85
2023-01-29T20:51:51.009Z,35.00
2023-01-29T20:54:17.658Z,34.28
2023-01-29T20:56:45.167Z,33.70
2023-01-29T20:59:13.703Z,37.38
2023-01-29T21:01:40.929Z,35.90
2023-01-29T21:04:07.554Z,32.17
2023-01-29T21:06:42.750Z,31.65
2023-01-29T21:09:09.392Z,30.60
2023-01-29T21:11:38.796Z,31.65
2023-01-29T21:14:05.433Z,35.78
2023-01-29T21:16:32.145Z,28.13
2023-01-29T21:19:07.717Z,36.75
2023-01-29T21:21:35.667Z,29.25
2023-01-29T21:24:02.250Z,35.60
2023-01-29T21:26:28.849Z,35.97
2023-01-29T21:28:58.831Z,34.10
2023-01-29T21:31:25.585Z,33.22
2023-01-29T21:33:52.198Z,28.70
2023-01-29T21:36:18.831Z,31.83
2023-01-29T21:38:45.404Z,31.75
2023-01-29T21:41:13.527Z,29.48
2023-01-29T21:43:40.159Z,30.20
2023-01-29T21:46:08.159Z,26.38
2023-01-29T21:48:34.743Z,34.03
2023-01-29T21:51:03.898Z,30.70
2023-01-29T21:53:31.340Z,33.40
2023-01-29T21:56:05.678Z,33.33
2023-01-29T21:58:40.136Z,28.83
2023-01-29T22:01:36.902Z,36.28
2023-01-29T22:04:07.749Z,38.17
2023-01-29T22:06:37.649Z,35.92
2023-01-29T22:09:24.480Z,33.15
2023-01-29T22:11:53.108Z,37.75
2023-01-29T22:14:19.713Z,34.35
2023-01-29T22:16:58.046Z,33.95
2023-01-29T22:19:27.514Z,36.47
2023-01-29T22:21:55.609Z,35.97
2023-01-29T22:24:22.385Z,35.22
2023-01-29T22:26:55.022Z,38.08
2023-01-29T22:29:21.600Z,32.75
2023-01-29T22:31:53.284Z,33.47
2023-01-29T22:34:22.335Z,41.92
2023-01-29T22:36:49.100Z,39.13
2023-01-29T22:39:15.658Z,35.88
2023-01-29T22:41:42.236Z,40.55
2023-01-29T22:44:09.650Z,42.45
2023-01-29T22:46:48.166Z,37.35
2023-01-29T22:49:18.464Z,38.80
2023-01-29T22:51:46.979Z,36.97
2023-01-29T22:54:13.611Z,35.03
2023-01-29T22:56:44.964Z,41.90
2023-01-29T22:59:15.290Z,43.65
2023-01-29T23:01:41.949Z,35.03
2023-01-29T23:04:16.651Z,36.85
2023-01-29T23:07:14.898Z,37.03
2023-01-29T23:09:46.528Z,40.40
2023-01-29T23:12:19.477Z,37.25
2023-01-29T23:14:57.321Z,34.40
2023-01-29T23:17:25.024Z,186.25
2023-01-29T23:19:54.385Z,305.30
2023-01-29T23:22:22.077Z,363.73
2023-01-29T23:24:56.271Z,265.50
2023-01-29T23:27:22.861Z,247.65
2023-01-29T23:29:49.644Z,175.70
2023-01-29T23:32:19.169Z,189.27
2023-01-29T23:34:45.932Z,124.38
2023-01-29T23:37:23.382Z,48.97
2023-01-29T23:39:50.232Z,53.97
2023-01-29T23:42:16.910Z,64.90
2023-01-29T23:44:48.014Z,55.00
2023-01-29T23:47:24.646Z,55.27
2023-01-29T23:49:55.297Z,38.80
2023-01-29T23:52:27.130Z,39.78
2023-01-29T23:54:53.777Z,39.67
2023-01-29T23:57:22.395Z,41.08
2023-01-29T23:59:51.857Z,35.05
